Time;durP1;ratioP1;P1;durP2;ratioP2;P2;SDS_P1;SDS_P2;PMS_P1;PMS_P2;Temp;Humidity;BMP_temperature;BMP_pressure;BME280_temperature;BME280_humidity;BME280_pressure;Samples;Min_cycle;Max_cycle;Signal;HPM_P1;HPM_P2
2020/12/08 00:08:24;;;;;;;1.75;0.40;;;11.30;62.20;;;;;;20832535;28;20034;-81
2020/12/08 00:18:25;;;;;;;0.22;0.22;;;11.30;62.20;;;;;;20824571;28;20041;-82
2020/12/08 00:28:25;;;;;;;1.00;0.40;;;11.30;62.20;;;;;;20822497;28;20040;-81
2020/12/08 00:38:26;;;;;;;0.32;0.28;;;11.30;62.30;;;;;;20820309;28;20037;-82
2020/12/08 00:48:31;;;;;;;0.60;0.43;;;11.30;62.20;;;;;;20820187;28;20042;-81
2020/12/08 00:58:32;;;;;;;1.38;0.47;;;11.30;62.30;;;;;;20811429;28;20411;-81
2020/12/08 01:08:35;;;;;;;0.90;0.35;;;11.30;62.40;;;;;;20835330;28;20116;-80
2020/12/08 01:18:37;;;;;;;0.47;0.35;;;11.30;62.40;;;;;;20828700;28;20404;-80
2020/12/08 01:28:39;;;;;;;0.43;0.28;;;11.30;62.30;;;;;;20826597;28;20057;-81
2020/12/08 01:38:41;;;;;;;0.35;0.35;;;11.30;62.30;;;;;;20801257;28;20069;-80
2020/12/08 01:48:43;;;;;;;0.30;0.30;;;11.30;62.30;;;;;;20828617;28;20037;-80
2020/12/08 01:58:47;;;;;;;0.28;0.20;;;11.30;62.40;;;;;;20842302;28;20399;-79
2020/12/08 02:08:50;;;;;;;0.50;0.50;;;11.30;62.40;;;;;;20836481;28;20060;-82
2020/12/08 02:19:01;;;;;;;0.85;0.55;;;11.30;62.40;;;;;;20814653;28;20495;-80
2020/12/08 02:29:10;;;;;;;1.57;0.67;;;11.30;62.40;;;;;;20827155;28;20388;-80
2020/12/08 02:39:15;;;;;;;0.52;0.30;;;11.30;62.50;;;;;;20834277;28;20380;-80
2020/12/08 02:49:17;;;;;;;1.27;0.30;;;11.30;62.50;;;;;;20835685;28;20438;-81
2020/12/08 02:59:22;;;;;;;0.28;0.22;;;11.30;62.40;;;;;;20850665;28;20044;-81
2020/12/08 03:09:24;;;;;;;0.50;0.40;;;11.30;62.40;;;;;;20826482;28;20511;-81
2020/12/08 03:19:26;;;;;;;0.20;0.20;;;11.30;62.40;;;;;;20854488;28;20052;-81
2020/12/08 03:29:28;;;;;;;0.45;0.35;;;11.30;62.40;;;;;;20853568;28;20083;-80
2020/12/08 03:39:30;;;;;;;0.55;0.35;;;11.30;62.40;;;;;;20831407;28;20048;-80
2020/12/08 03:49:33;;;;;;;2.10;0.88;;;11.20;62.40;;;;;;20833958;28;20040;-80
2020/12/08 03:59:37;;;;;;;1.13;0.52;;;11.30;62.50;;;;;;20820055;28;20464;-80
2020/12/08 04:09:44;;;;;;;1.05;0.38;;;11.30;62.40;;;;;;20825364;28;20105;-81
2020/12/08 04:19:45;;;;;;;1.00;0.52;;;11.30;62.40;;;;;;20819619;28;20040;-80
2020/12/08 04:29:49;;;;;;;0.30;0.30;;;11.30;62.40;;;;;;20828973;28;20042;-81
2020/12/08 04:40:00;;;;;;;1.10;0.80;;;11.30;62.40;;;;;;20827955;28;20392;-82
2020/12/08 04:50:05;;;;;;;0.45;0.38;;;11.30;62.40;;;;;;20838846;28;20029;-81
2020/12/08 05:00:14;;;;;;;1.38;0.52;;;11.30;62.40;;;;;;20835932;28;20049;-80
2020/12/08 05:10:27;;;;;;;1.13;0.70;;;11.30;62.40;;;;;;20815123;28;20132;-81
2020/12/08 05:20:31;;;;;;;2.63;0.65;;;11.30;62.70;;;;;;20851147;28;20055;-81
2020/12/08 05:30:43;;;;;;;0.93;0.57;;;11.40;62.50;;;;;;20840743;28;20060;-80
2020/12/08 05:40:46;;;;;;;0.82;0.40;;;11.60;62.30;;;;;;20797240;28;20124;-79
2020/12/08 05:50:48;;;;;;;1.75;0.70;;;11.80;61.90;;;;;;20837100;28;20042;-80
2020/12/08 06:00:51;;;;;;;1.27;0.70;;;12.00;61.40;;;;;;20811042;28;20506;-80
2020/12/08 06:10:53;;;;;;;0.45;0.38;;;12.10;60.70;;;;;;20834426;28;20032;-79
2020/12/08 06:20:56;;;;;;;1.90;0.80;;;12.10;60.30;;;;;;20848742;28;20510;-77
2020/12/08 06:31:04;;;;;;;0.63;0.40;;;12.20;59.90;;;;;;20870051;28;20283;-77
2020/12/08 06:41:06;;;;;;;1.67;0.90;;;12.10;59.50;;;;;;20851776;28;20396;-80
2020/12/08 06:51:18;;;;;;;1.27;0.93;;;12.00;59.50;;;;;;20829982;28;20042;-79
2020/12/08 07:01:19;;;;;;;1.08;0.60;;;11.90;59.90;;;;;;20835536;28;20488;-73
2020/12/08 07:11:23;;;;;;;2.00;0.57;;;11.70;60.20;;;;;;20848154;28;20119;-74
2020/12/08 07:21:25;;;;;;;0.85;0.55;;;11.70;60.60;;;;;;20810753;28;20050;-73
2020/12/08 07:31:30;;;;;;;1.67;0.50;;;11.60;60.80;;;;;;20844894;28;20034;-75
2020/12/08 07:41:31;;;;;;;0.10;0.10;;;11.60;61.20;;;;;;20808544;28;20429;-74
2020/12/08 07:51:32;;;;;;;1.25;0.47;;;11.50;61.30;;;;;;20850247;28;20033;-75
2020/12/08 08:01:43;;;;;;;0.82;0.68;;;11.50;61.30;;;;;;20838969;28;20416;-74
2020/12/08 08:11:43;;;;;;;1.52;0.77;;;11.60;62.10;;;;;;20803071;28;20033;-75
2020/12/08 08:21:45;;;;;;;0.82;0.55;;;11.60;61.30;;;;;;20819535;28;20044;-74
2020/12/08 08:31:47;;;;;;;0.75;0.50;;;11.50;61.30;;;;;;20818115;28;20112;-74
2020/12/08 08:41:47;;;;;;;1.63;0.73;;;11.50;61.30;;;;;;20834313;28;20467;-74
2020/12/08 08:51:48;;;;;;;0.47;0.47;;;11.60;61.80;;;;;;20832134;28;20021;-77
2020/12/08 09:01:49;;;;;;;2.20;0.98;;;11.60;61.30;;;;;;21225441;22;20040;-78
2020/12/08 09:11:53;;;;;;;0.80;0.50;;;11.60;61.50;;;;;;20908279;28;20036;-77
2020/12/08 09:21:54;;;;;;;0.90;0.40;;;11.50;61.30;;;;;;20902442;28;20323;-79
2020/12/08 09:31:55;;;;;;;0.60;0.38;;;11.60;61.50;;;;;;20863434;28;20545;-76
2020/12/08 09:41:56;;;;;;;0.57;0.43;;;11.60;61.60;;;;;;20879190;28;20085;-75
2020/12/08 09:51:57;;;;;;;0.60;0.60;;;11.50;61.50;;;;;;20876665;28;20083;-73
2020/12/08 10:02:01;;;;;;;1.63;0.63;;;11.50;61.60;;;;;;20901737;28;20038;-73
2020/12/08 10:12:02;;;;;;;0.38;0.35;;;11.50;61.70;;;;;;20875335;28;20033;-73
2020/12/08 10:22:03;;;;;;;0.80;0.57;;;11.50;61.70;;;;;;20866960;28;20083;-74
2020/12/08 10:32:04;;;;;;;0.22;0.22;;;11.50;61.70;;;;;;20906729;28;20120;-73
2020/12/08 10:42:05;;;;;;;0.60;0.45;;;11.60;61.80;;;;;;20906925;28;20110;-73
2020/12/08 10:52:05;;;;;;;0.75;0.47;;;11.50;61.80;;;;;;20866506;28;20028;-73
2020/12/08 11:02:06;;;;;;;1.70;0.77;;;11.50;61.80;;;;;;20864769;28;20527;-74
2020/12/08 11:12:07;;;;;;;1.75;0.77;;;11.50;61.80;;;;;;20871387;28;20505;-73
2020/12/08 11:22:08;;;;;;;0.73;0.60;;;11.70;62.10;;;;;;20902669;28;20107;-74
2020/12/08 11:32:08;;;;;;;1.02;0.60;;;11.70;61.70;;;;;;20902310;28;20433;-75
2020/12/08 11:42:12;;;;;;;0.98;0.57;;;11.60;61.80;;;;;;20876875;28;20040;-77
2020/12/08 11:52:14;;;;;;;0.43;0.43;;;11.60;62.00;;;;;;20882302;28;20027;-75
2020/12/08 12:02:14;;;;;;;1.30;0.52;;;11.50;62.40;;;;;;20923192;28;20143;-77
2020/12/08 12:12:15;;;;;;;1.80;0.70;;;11.50;62.10;;;;;;20889349;28;20138;-76
2020/12/08 12:22:16;;;;;;;1.83;0.93;;;11.60;62.10;;;;;;20872055;28;20041;-77
2020/12/08 12:32:17;;;;;;;1.63;0.93;;;11.50;62.10;;;;;;20851834;28;20287;-74
2020/12/08 12:42:18;;;;;;;0.77;0.43;;;11.60;62.10;;;;;;20883796;28;20052;-74
2020/12/08 12:52:19;;;;;;;1.48;0.90;;;11.60;62.60;;;;;;20896042;28;20082;-73
2020/12/08 13:02:20;;;;;;;1.33;0.95;;;11.60;62.20;;;;;;20874140;28;20490;-73
2020/12/08 13:12:20;;;;;;;1.27;0.75;;;11.60;62.10;;;;;;20873348;28;20030;-74
2020/12/08 13:22:21;;;;;;;0.75;0.57;;;11.50;62.10;;;;;;20903796;28;20061;-74
2020/12/08 13:32:22;;;;;;;1.88;0.70;;;11.50;62.30;;;;;;20881667;28;20081;-73
2020/12/08 13:42:22;;;;;;;1.17;0.60;;;11.50;62.30;;;;;;20859424;28;20060;-76
2020/12/08 13:52:25;;;;;;;0.57;0.45;;;11.50;62.50;;;;;;20864021;28;20461;-72
2020/12/08 14:02:25;;;;;;;3.65;1.52;;;11.50;62.50;;;;;;20869123;28;20579;-76
2020/12/08 14:12:26;;;;;;;1.70;1.27;;;11.50;62.50;;;;;;20848644;28;20475;-75
2020/12/08 14:22:26;;;;;;;1.50;1.05;;;11.50;62.50;;;;;;20864705;28;20091;-74
2020/12/08 14:32:28;;;;;;;1.77;1.00;;;11.50;62.70;;;;;;20867449;28;20029;-79
2020/12/08 14:42:28;;;;;;;3.80;1.73;;;11.50;62.60;;;;;;20898400;28;20108;-75
2020/12/08 14:52:29;;;;;;;3.72;1.52;;;11.50;62.60;;;;;;20862438;28;20139;-74
2020/12/08 15:02:30;;;;;;;3.85;1.30;;;11.50;62.70;;;;;;20859964;28;20317;-73
2020/12/08 15:12:31;;;;;;;1.75;1.38;;;11.50;62.60;;;;;;20889195;28;20065;-71
2020/12/08 15:22:31;;;;;;;1.83;0.95;;;11.50;62.90;;;;;;20864856;28;20033;-74
2020/12/08 15:32:32;;;;;;;1.30;1.02;;;11.70;62.90;;;;;;20872243;28;20116;-73
2020/12/08 15:42:33;;;;;;;2.33;1.13;;;11.80;62.60;;;;;;20874859;28;20033;-73
2020/12/08 15:52:34;;;;;;;2.63;1.35;;;12.00;62.00;;;;;;20868126;28;20036;-74
2020/12/08 16:02:40;;;;;;;1.55;0.90;;;12.20;61.60;;;;;;20895004;28;20483;-74
2020/12/08 16:12:41;;;;;;;2.65;1.33;;;12.20;61.20;;;;;;20872354;28;20076;-73
2020/12/08 16:22:42;;;;;;;2.92;1.05;;;12.30;60.70;;;;;;20887138;28;20432;-73
2020/12/08 16:32:43;;;;;;;1.95;1.42;;;12.20;60.40;;;;;;20864948;28;20537;-71
2020/12/08 16:42:43;;;;;;;2.67;1.48;;;12.00;60.40;;;;;;20866486;28;20127;-70
2020/12/08 16:52:47;;;;;;;3.00;1.25;;;11.90;60.70;;;;;;20909176;28;20152;-72
2020/12/08 17:02:47;;;;;;;2.28;1.85;;;11.90;60.90;;;;;;20867183;28;20484;-70
2020/12/08 17:12:48;;;;;;;1.25;0.68;;;11.70;61.10;;;;;;20866933;28;20039;-70
2020/12/08 17:22:49;;;;;;;2.42;1.48;;;11.70;61.40;;;;;;20854513;28;20713;-72
2020/12/08 17:32:49;;;;;;;2.60;1.35;;;11.60;61.60;;;;;;20857772;28;20033;-71
2020/12/08 17:42:50;;;;;;;6.05;1.58;;;11.60;61.90;;;;;;20853457;28;20037;-73
2020/12/08 17:52:51;;;;;;;4.72;1.50;;;11.60;62.10;;;;;;20885876;28;20048;-71
2020/12/08 18:02:52;;;;;;;9.90;1.90;;;11.50;62.10;;;;;;20847953;28;20053;-76
2020/12/08 18:12:54;;;;;;;2.92;1.73;;;11.50;62.20;;;;;;20861234;28;20487;-75
2020/12/08 18:22:54;;;;;;;3.53;1.48;;;11.50;62.30;;;;;;20898139;28;20473;-73
2020/12/08 18:32:56;;;;;;;2.28;1.98;;;11.50;62.40;;;;;;20902161;28;20119;-76
2020/12/08 18:42:58;;;;;;;3.45;1.48;;;11.50;62.60;;;;;;20875439;28;20045;-76
2020/12/08 18:53:00;;;;;;;5.22;1.75;;;11.40;62.60;;;;;;20894776;28;20082;-78
2020/12/08 19:03:01;;;;;;;2.17;1.52;;;11.40;62.60;;;;;;20866525;28;20404;-75
2020/12/08 19:13:03;;;;;;;3.47;1.77;;;11.40;62.60;;;;;;20878015;28;20040;-76
2020/12/08 19:23:09;;;;;;;2.42;1.52;;;11.40;62.70;;;;;;20919357;28;20039;-77
2020/12/08 19:33:11;;;;;;;4.40;1.40;;;11.40;62.70;;;;;;20862563;28;20120;-76
2020/12/08 19:43:14;;;;;;;3.38;2.00;;;11.30;62.60;;;;;;20864769;28;20132;-76
2020/12/08 19:53:14;;;;;;;2.78;2.20;;;11.40;62.70;;;;;;20886715;28;20045;-76
2020/12/08 20:03:17;;;;;;;4.32;2.00;;;11.30;62.60;;;;;;20856536;28;20053;-76
2020/12/08 20:13:19;;;;;;;6.13;2.20;;;11.40;62.70;;;;;;20873659;28;20052;-76
2020/12/08 20:23:21;;;;;;;4.00;1.77;;;11.30;62.70;;;;;;20877157;28;20037;-78
2020/12/08 20:33:22;;;;;;;3.63;1.88;;;11.30;62.70;;;;;;20866255;28;20040;-76
2020/12/08 20:43:23;;;;;;;2.72;1.67;;;11.30;62.70;;;;;;20883199;28;20048;-76
2020/12/08 20:53:24;;;;;;;2.72;1.58;;;11.30;62.70;;;;;;20888481;28;20033;-76
2020/12/08 21:03:25;;;;;;;3.05;1.70;;;11.30;62.70;;;;;;20871248;28;20114;-76
2020/12/08 21:13:25;;;;;;;2.83;2.33;;;11.30;62.70;;;;;;20896167;28;20487;-77
2020/12/08 21:23:28;;;;;;;5.88;2.90;;;11.30;62.70;;;;;;20880627;28;20128;-76
2020/12/08 21:33:29;;;;;;;5.22;2.75;;;11.30;62.70;;;;;;20884874;28;20029;-77
2020/12/08 21:43:30;;;;;;;4.03;1.98;;;11.30;62.70;;;;;;20868095;28;20048;-76
2020/12/08 21:53:30;;;;;;;1.70;1.42;;;11.20;62.70;;;;;;20892813;28;20475;-77
2020/12/08 22:03:34;;;;;;;3.95;1.80;;;11.30;62.70;;;;;;20877237;28;20036;-76
2020/12/08 22:13:37;;;;;;;2.28;1.25;;;11.20;62.70;;;;;;20879638;28;20125;-76
2020/12/08 22:23:38;;;;;;;3.65;1.50;;;11.20;62.70;;;;;;20910813;28;20039;-77
2020/12/08 22:33:39;;;;;;;2.58;1.73;;;11.30;62.70;;;;;;20902255;28;20048;-76
2020/12/08 22:43:40;;;;;;;2.42;1.50;;;11.20;62.60;;;;;;20869498;28;20057;-77
2020/12/08 22:53:43;;;;;;;5.03;1.83;;;11.20;62.70;;;;;;20874398;28;20672;-76
2020/12/08 23:03:46;;;;;;;6.40;2.17;;;11.20;62.60;;;;;;20877101;28;20112;-76
2020/12/08 23:13:46;;;;;;;3.75;2.05;;;11.20;62.70;;;;;;20860992;28;20434;-76
2020/12/08 23:23:47;;;;;;;6.90;2.67;;;11.20;62.70;;;;;;20873254;28;20139;-76
2020/12/08 23:33:48;;;;;;;6.15;1.67;;;11.20;62.70;;;;;;20900996;28;20091;-77
2020/12/08 23:43:51;;;;;;;7.97;2.67;;;11.20;62.70;;;;;;20873039;28;20044;-78
2020/12/08 23:53:53;;;;;;;5.22;2.65;;;11.20;62.60;;;;;;20854183;28;20116;-76
